sensor_id;sensor_type;location;lat;lon;timestamp;temperature;humidity
52895;DHT22;38759;53.396;6.722;2024-03-17T00:00:17;4.00;99.90
52895;DHT22;38759;53.396;6.722;2024-03-17T00:02:44;4.00;99.90
52895;DHT22;38759;53.396;6.722;2024-03-17T00:05:10;4.00;99.90
52895;DHT22;38759;53.396;6.722;2024-03-17T00:07:35;4.20;99.90
52895;DHT22;38759;53.396;6.722;2024-03-17T00:10:01;4.00;99.90
52895;DHT22;38759;53.396;6.722;2024-03-17T00:12:27;4.00;99.90
52895;DHT22;38759;53.396;6.722;2024-03-17T00:14:52;4.00;99.90
52895;DHT22;38759;53.396;6.722;2024-03-17T00:17:18;4.00;99.90
52895;DHT22;38759;53.396;6.722;2024-03-17T00:19:46;4.00;99.90
52895;DHT22;38759;53.396;6.722;2024-03-17T00:22:12;4.00;99.90
52895;DHT22;38759;53.396;6.722;2024-03-17T00:24:40;4.00;99.90
52895;DHT22;38759;53.396;6.722;2024-03-17T00:27:06;4.00;99.90
52895;DHT22;38759;53.396;6.722;2024-03-17T00:29:32;4.00;99.90
52895;DHT22;38759;53.396;6.722;2024-03-17T00:31:58;4.00;99.90
52895;DHT22;38759;53.396;6.722;2024-03-17T00:34:24;3.90;99.90
52895;DHT22;38759;53.396;6.722;2024-03-17T00:36:49;4.00;99.90
52895;DHT22;38759;53.396;6.722;2024-03-17T00:39:17;4.00;99.90
52895;DHT22;38759;53.396;6.722;2024-03-17T00:41:43;3.90;99.90
52895;DHT22;38759;53.396;6.722;2024-03-17T00:44:09;4.00;99.90
52895;DHT22;38759;53.396;6.722;2024-03-17T00:46:35;3.90;99.90
52895;DHT22;38759;53.396;6.722;2024-03-17T00:49:01;4.00;99.90
52895;DHT22;38759;53.396;6.722;2024-03-17T00:51:26;4.00;99.90
52895;DHT22;38759;53.396;6.722;2024-03-17T00:53:52;4.00;99.90
52895;DHT22;38759;53.396;6.722;2024-03-17T00:56:18;4.00;99.90
52895;DHT22;38759;53.396;6.722;2024-03-17T00:58:43;4.00;99.90
52895;DHT22;38759;53.396;6.722;2024-03-17T01:01:11;4.00;99.90
52895;DHT22;38759;53.396;6.722;2024-03-17T01:03:37;4.10;99.90
52895;DHT22;38759;53.396;6.722;2024-03-17T01:06:04;4.40;99.90
52895;DHT22;38759;53.396;6.722;2024-03-17T01:08:30;4.10;99.90
52895;DHT22;38759;53.396;6.722;2024-03-17T01:10:55;4.20;99.90
52895;DHT22;38759;53.396;6.722;2024-03-17T01:13:21;4.30;99.90
52895;DHT22;38759;53.396;6.722;2024-03-17T01:15:51;4.20;99.90
52895;DHT22;38759;53.396;6.722;2024-03-17T01:18:17;4.60;99.90
52895;DHT22;38759;53.396;6.722;2024-03-17T01:20:44;4.20;99.90
52895;DHT22;38759;53.396;6.722;2024-03-17T01:23:10;4.20;99.90
52895;DHT22;38759;53.396;6.722;2024-03-17T01:25:36;4.20;99.90
52895;DHT22;38759;53.396;6.722;2024-03-17T01:28:05;4.20;99.90
52895;DHT22;38759;53.396;6.722;2024-03-17T01:30:32;4.20;99.90
52895;DHT22;38759;53.396;6.722;2024-03-17T01:32:58;4.20;99.90
52895;DHT22;38759;53.396;6.722;2024-03-17T01:35:25;4.20;99.90
52895;DHT22;38759;53.396;6.722;2024-03-17T01:37:51;4.20;99.90
52895;DHT22;38759;53.396;6.722;2024-03-17T01:40:17;4.20;99.90
52895;DHT22;38759;53.396;6.722;2024-03-17T01:42:42;4.10;99.90
52895;DHT22;38759;53.396;6.722;2024-03-17T01:47:49;4.10;99.90
52895;DHT22;38759;53.396;6.722;2024-03-17T01:50:15;4.10;99.90
52895;DHT22;38759;53.396;6.722;2024-03-17T01:52:46;4.10;99.90
52895;DHT22;38759;53.396;6.722;2024-03-17T01:55:12;4.10;99.90
52895;DHT22;38759;53.396;6.722;2024-03-17T01:57:38;4.10;99.90
52895;DHT22;38759;53.396;6.722;2024-03-17T02:00:05;4.00;99.90
52895;DHT22;38759;53.396;6.722;2024-03-17T02:02:34;4.00;99.90
52895;DHT22;38759;53.396;6.722;2024-03-17T02:05:00;3.90;99.90
52895;DHT22;38759;53.396;6.722;2024-03-17T02:07:26;3.90;99.90
52895;DHT22;38759;53.396;6.722;2024-03-17T02:09:51;3.90;99.90
52895;DHT22;38759;53.396;6.722;2024-03-17T02:12:17;3.90;99.90
52895;DHT22;38759;53.396;6.722;2024-03-17T02:14:43;3.80;99.90
52895;DHT22;38759;53.396;6.722;2024-03-17T02:17:08;3.80;99.90
52895;DHT22;38759;53.396;6.722;2024-03-17T02:19:34;3.80;99.90
52895;DHT22;38759;53.396;6.722;2024-03-17T02:22:00;3.80;99.90
52895;DHT22;38759;53.396;6.722;2024-03-17T02:24:25;3.70;99.90
52895;DHT22;38759;53.396;6.722;2024-03-17T02:26:51;3.70;99.90
52895;DHT22;38759;53.396;6.722;2024-03-17T02:29:17;3.70;99.90
52895;DHT22;38759;53.396;6.722;2024-03-17T02:31:43;3.70;99.90
52895;DHT22;38759;53.396;6.722;2024-03-17T02:34:08;3.60;99.90
52895;DHT22;38759;53.396;6.722;2024-03-17T02:36:34;3.60;99.90
52895;DHT22;38759;53.396;6.722;2024-03-17T02:39:00;3.60;99.90
52895;DHT22;38759;53.396;6.722;2024-03-17T02:41:44;3.60;99.90
52895;DHT22;38759;53.396;6.722;2024-03-17T02:44:11;3.60;99.90
52895;DHT22;38759;53.396;6.722;2024-03-17T02:46:37;3.60;99.90
52895;DHT22;38759;53.396;6.722;2024-03-17T02:49:03;3.60;99.90
52895;DHT22;38759;53.396;6.722;2024-03-17T02:51:29;3.50;99.90
52895;DHT22;38759;53.396;6.722;2024-03-17T02:53:55;3.50;99.90
52895;DHT22;38759;53.396;6.722;2024-03-17T02:56:21;3.50;99.90
52895;DHT22;38759;53.396;6.722;2024-03-17T02:58:47;3.50;99.90
52895;DHT22;38759;53.396;6.722;2024-03-17T03:01:14;3.50;99.90
52895;DHT22;38759;53.396;6.722;2024-03-17T03:03:43;3.50;99.90
52895;DHT22;38759;53.396;6.722;2024-03-17T03:06:10;3.40;99.90
52895;DHT22;38759;53.396;6.722;2024-03-17T03:08:40;3.30;99.90
52895;DHT22;38759;53.396;6.722;2024-03-17T03:11:08;3.40;99.90
52895;DHT22;38759;53.396;6.722;2024-03-17T03:13:39;3.30;99.90
52895;DHT22;38759;53.396;6.722;2024-03-17T03:16:11;3.20;99.90
52895;DHT22;38759;53.396;6.722;2024-03-17T03:18:38;3.30;99.90
52895;DHT22;38759;53.396;6.722;2024-03-17T03:21:07;3.30;99.90
52895;DHT22;38759;53.396;6.722;2024-03-17T03:23:33;3.30;99.90
52895;DHT22;38759;53.396;6.722;2024-03-17T03:26:00;3.30;99.90
52895;DHT22;38759;53.396;6.722;2024-03-17T03:28:30;3.30;99.90
52895;DHT22;38759;53.396;6.722;2024-03-17T03:30:56;3.30;99.90
52895;DHT22;38759;53.396;6.722;2024-03-17T03:33:22;3.40;99.90
52895;DHT22;38759;53.396;6.722;2024-03-17T03:35:48;3.30;99.90
52895;DHT22;38759;53.396;6.722;2024-03-17T03:38:14;3.30;99.90
52895;DHT22;38759;53.396;6.722;2024-03-17T03:40:43;3.30;99.90
52895;DHT22;38759;53.396;6.722;2024-03-17T03:43:09;3.30;99.90
52895;DHT22;38759;53.396;6.722;2024-03-17T03:45:36;3.30;99.90
52895;DHT22;38759;53.396;6.722;2024-03-17T03:48:02;3.30;99.90
52895;DHT22;38759;53.396;6.722;2024-03-17T03:50:29;3.30;99.90
52895;DHT22;38759;53.396;6.722;2024-03-17T03:52:55;3.20;99.90
52895;DHT22;38759;53.396;6.722;2024-03-17T03:55:21;3.20;99.90
52895;DHT22;38759;53.396;6.722;2024-03-17T03:57:46;3.20;99.90
52895;DHT22;38759;53.396;6.722;2024-03-17T04:00:17;3.20;99.90
52895;DHT22;38759;53.396;6.722;2024-03-17T04:02:48;3.20;99.90
52895;DHT22;38759;53.396;6.722;2024-03-17T04:05:14;3.20;99.90
52895;DHT22;38759;53.396;6.722;2024-03-17T04:07:39;3.20;99.90
52895;DHT22;38759;53.396;6.722;2024-03-17T04:10:06;3.10;99.90
52895;DHT22;38759;53.396;6.722;2024-03-17T04:12:32;3.10;99.90
52895;DHT22;38759;53.396;6.722;2024-03-17T04:15:01;3.20;99.90
52895;DHT22;38759;53.396;6.722;2024-03-17T04:17:28;3.10;99.90
52895;DHT22;38759;53.396;6.722;2024-03-17T04:19:54;3.20;99.90
52895;DHT22;38759;53.396;6.722;2024-03-17T04:22:20;3.20;99.90
52895;DHT22;38759;53.396;6.722;2024-03-17T04:24:48;3.20;99.90
52895;DHT22;38759;53.396;6.722;2024-03-17T04:27:19;3.20;99.90
52895;DHT22;38759;53.396;6.722;2024-03-17T04:29:47;3.20;99.90
52895;DHT22;38759;53.396;6.722;2024-03-17T04:32:13;3.20;99.90
52895;DHT22;38759;53.396;6.722;2024-03-17T04:34:39;3.30;99.90
52895;DHT22;38759;53.396;6.722;2024-03-17T04:37:05;3.30;99.90
52895;DHT22;38759;53.396;6.722;2024-03-17T04:39:31;3.30;99.90
52895;DHT22;38759;53.396;6.722;2024-03-17T04:41:57;3.30;99.90
52895;DHT22;38759;53.396;6.722;2024-03-17T04:44:22;3.30;99.90
52895;DHT22;38759;53.396;6.722;2024-03-17T04:46:48;3.40;99.90
52895;DHT22;38759;53.396;6.722;2024-03-17T04:49:14;3.40;99.90
52895;DHT22;38759;53.396;6.722;2024-03-17T04:51:40;3.40;99.90
52895;DHT22;38759;53.396;6.722;2024-03-17T04:54:05;3.40;99.90
52895;DHT22;38759;53.396;6.722;2024-03-17T04:56:33;3.50;99.90
52895;DHT22;38759;53.396;6.722;2024-03-17T04:58:58;3.50;99.90
52895;DHT22;38759;53.396;6.722;2024-03-17T05:01:24;3.50;99.90
52895;DHT22;38759;53.396;6.722;2024-03-17T05:03:53;3.60;99.90
52895;DHT22;38759;53.396;6.722;2024-03-17T05:06:19;3.60;99.90
52895;DHT22;38759;53.396;6.722;2024-03-17T05:08:45;3.60;99.90
52895;DHT22;38759;53.396;6.722;2024-03-17T05:11:11;3.60;99.90
52895;DHT22;38759;53.396;6.722;2024-03-17T05:13:37;3.70;99.90
52895;DHT22;38759;53.396;6.722;2024-03-17T05:16:04;3.70;99.90
52895;DHT22;38759;53.396;6.722;2024-03-17T05:18:30;3.70;99.90
52895;DHT22;38759;53.396;6.722;2024-03-17T05:23:28;3.70;99.90
52895;DHT22;38759;53.396;6.722;2024-03-17T05:25:55;3.70;99.90
52895;DHT22;38759;53.396;6.722;2024-03-17T05:28:21;3.70;99.90
52895;DHT22;38759;53.396;6.722;2024-03-17T05:30:47;3.70;99.90
52895;DHT22;38759;53.396;6.722;2024-03-17T05:33:20;3.70;99.90
52895;DHT22;38759;53.396;6.722;2024-03-17T05:35:51;3.70;99.90
52895;DHT22;38759;53.396;6.722;2024-03-17T05:38:27;3.80;99.90
52895;DHT22;38759;53.396;6.722;2024-03-17T05:40:55;3.70;99.90
52895;DHT22;38759;53.396;6.722;2024-03-17T05:43:22;3.70;99.90
52895;DHT22;38759;53.396;6.722;2024-03-17T05:46:08;3.80;99.90
52895;DHT22;38759;53.396;6.722;2024-03-17T05:48:38;3.70;99.90
52895;DHT22;38759;53.396;6.722;2024-03-17T05:51:08;3.80;99.90
52895;DHT22;38759;53.396;6.722;2024-03-17T05:53:35;3.80;99.90
52895;DHT22;38759;53.396;6.722;2024-03-17T05:56:02;3.80;99.90
52895;DHT22;38759;53.396;6.722;2024-03-17T05:58:28;3.90;99.90
52895;DHT22;38759;53.396;6.722;2024-03-17T06:00:53;3.90;99.90
52895;DHT22;38759;53.396;6.722;2024-03-17T06:03:19;3.90;99.90
52895;DHT22;38759;53.396;6.722;2024-03-17T06:05:45;3.90;99.90
52895;DHT22;38759;53.396;6.722;2024-03-17T06:08:11;3.90;99.90
52895;DHT22;38759;53.396;6.722;2024-03-17T06:10:42;3.90;99.90
52895;DHT22;38759;53.396;6.722;2024-03-17T06:13:08;4.00;99.90
52895;DHT22;38759;53.396;6.722;2024-03-17T06:15:37;4.10;99.90
52895;DHT22;38759;53.396;6.722;2024-03-17T06:18:03;4.00;99.90
52895;DHT22;38759;53.396;6.722;2024-03-17T06:20:30;4.10;99.90
52895;DHT22;38759;53.396;6.722;2024-03-17T06:22:56;4.10;99.90
52895;DHT22;38759;53.396;6.722;2024-03-17T06:25:22;4.10;99.90
52895;DHT22;38759;53.396;6.722;2024-03-17T06:27:51;4.20;99.90
52895;DHT22;38759;53.396;6.722;2024-03-17T06:30:17;4.20;99.90
52895;DHT22;38759;53.396;6.722;2024-03-17T06:32:44;4.30;99.90
52895;DHT22;38759;53.396;6.722;2024-03-17T06:35:14;4.30;99.90
52895;DHT22;38759;53.396;6.722;2024-03-17T06:37:44;4.30;99.90
52895;DHT22;38759;53.396;6.722;2024-03-17T06:40:13;4.40;99.90
52895;DHT22;38759;53.396;6.722;2024-03-17T06:42:39;4.40;99.90
52895;DHT22;38759;53.396;6.722;2024-03-17T06:45:05;4.50;99.90
52895;DHT22;38759;53.396;6.722;2024-03-17T06:47:34;4.50;99.90
52895;DHT22;38759;53.396;6.722;2024-03-17T06:49:59;4.60;99.90
52895;DHT22;38759;53.396;6.722;2024-03-17T06:52:25;4.60;99.90
52895;DHT22;38759;53.396;6.722;2024-03-17T06:54:50;4.70;99.90
52895;DHT22;38759;53.396;6.722;2024-03-17T06:57:16;4.80;99.90
52895;DHT22;38759;53.396;6.722;2024-03-17T06:59:42;4.70;99.90
52895;DHT22;38759;53.396;6.722;2024-03-17T07:02:10;4.90;99.90
52895;DHT22;38759;53.396;6.722;2024-03-17T07:04:38;4.90;99.90
52895;DHT22;38759;53.396;6.722;2024-03-17T07:07:03;4.90;99.90
52895;DHT22;38759;53.396;6.722;2024-03-17T07:09:29;5.00;99.90
52895;DHT22;38759;53.396;6.722;2024-03-17T07:11:54;5.00;99.90
52895;DHT22;38759;53.396;6.722;2024-03-17T07:14:20;5.10;99.90
52895;DHT22;38759;53.396;6.722;2024-03-17T07:16:46;5.10;99.90
52895;DHT22;38759;53.396;6.722;2024-03-17T07:19:11;5.10;99.90
52895;DHT22;38759;53.396;6.722;2024-03-17T07:21:37;5.20;99.90
52895;DHT22;38759;53.396;6.722;2024-03-17T07:24:03;5.30;99.90
52895;DHT22;38759;53.396;6.722;2024-03-17T07:26:30;5.30;99.90
52895;DHT22;38759;53.396;6.722;2024-03-17T07:28:56;5.40;99.90
52895;DHT22;38759;53.396;6.722;2024-03-17T07:31:22;5.40;99.90
52895;DHT22;38759;53.396;6.722;2024-03-17T07:33:47;5.50;99.90
52895;DHT22;38759;53.396;6.722;2024-03-17T07:36:14;5.60;99.90
52895;DHT22;38759;53.396;6.722;2024-03-17T07:38:40;5.70;99.90
52895;DHT22;38759;53.396;6.722;2024-03-17T07:41:07;5.70;99.90
52895;DHT22;38759;53.396;6.722;2024-03-17T07:43:35;5.80;99.90
52895;DHT22;38759;53.396;6.722;2024-03-17T07:46:06;5.90;99.90
52895;DHT22;38759;53.396;6.722;2024-03-17T07:48:36;5.90;99.90
52895;DHT22;38759;53.396;6.722;2024-03-17T07:51:04;6.00;99.90
52895;DHT22;38759;53.396;6.722;2024-03-17T07:53:33;6.00;99.90
52895;DHT22;38759;53.396;6.722;2024-03-17T07:56:03;6.10;99.90
52895;DHT22;38759;53.396;6.722;2024-03-17T07:58:33;6.20;99.90
52895;DHT22;38759;53.396;6.722;2024-03-17T08:01:03;6.20;99.90
52895;DHT22;38759;53.396;6.722;2024-03-17T08:03:30;6.30;99.90
52895;DHT22;38759;53.396;6.722;2024-03-17T08:05:57;6.40;99.90
52895;DHT22;38759;53.396;6.722;2024-03-17T08:08:23;6.40;99.90
52895;DHT22;38759;53.396;6.722;2024-03-17T08:10:49;6.50;99.90
52895;DHT22;38759;53.396;6.722;2024-03-17T08:13:16;6.60;99.90
52895;DHT22;38759;53.396;6.722;2024-03-17T08:15:46;6.60;99.90
52895;DHT22;38759;53.396;6.722;2024-03-17T08:18:12;6.70;99.90
52895;DHT22;38759;53.396;6.722;2024-03-17T08:20:39;6.80;99.90
52895;DHT22;38759;53.396;6.722;2024-03-17T08:23:05;6.80;99.90
52895;DHT22;38759;53.396;6.722;2024-03-17T08:25:34;6.80;99.90
52895;DHT22;38759;53.396;6.722;2024-03-17T08:28:01;6.80;99.90
52895;DHT22;38759;53.396;6.722;2024-03-17T08:30:27;6.80;99.90
52895;DHT22;38759;53.396;6.722;2024-03-17T08:32:52;6.90;99.90
52895;DHT22;38759;53.396;6.722;2024-03-17T08:35:18;6.80;99.90
52895;DHT22;38759;53.396;6.722;2024-03-17T08:37:44;6.80;99.90
52895;DHT22;38759;53.396;6.722;2024-03-17T08:40:11;6.90;99.90
52895;DHT22;38759;53.396;6.722;2024-03-17T08:42:37;6.90;99.90
52895;DHT22;38759;53.396;6.722;2024-03-17T08:45:03;6.90;99.90
52895;DHT22;38759;53.396;6.722;2024-03-17T08:47:29;6.90;99.90
52895;DHT22;38759;53.396;6.722;2024-03-17T08:49:55;6.90;99.90
52895;DHT22;38759;53.396;6.722;2024-03-17T08:52:20;6.90;99.90
52895;DHT22;38759;53.396;6.722;2024-03-17T08:54:47;6.90;99.90
52895;DHT22;38759;53.396;6.722;2024-03-17T08:57:13;7.00;99.90
52895;DHT22;38759;53.396;6.722;2024-03-17T08:59:39;7.00;99.90
52895;DHT22;38759;53.396;6.722;2024-03-17T09:02:05;7.00;99.90
52895;DHT22;38759;53.396;6.722;2024-03-17T09:04:31;7.00;99.90
52895;DHT22;38759;53.396;6.722;2024-03-17T09:06:57;7.10;99.90
52895;DHT22;38759;53.396;6.722;2024-03-17T09:09:23;7.20;99.90
52895;DHT22;38759;53.396;6.722;2024-03-17T09:11:49;7.20;99.90
52895;DHT22;38759;53.396;6.722;2024-03-17T09:14:16;7.20;99.90
52895;DHT22;38759;53.396;6.722;2024-03-17T09:16:42;7.40;99.90
52895;DHT22;38759;53.396;6.722;2024-03-17T09:19:08;7.30;99.90
52895;DHT22;38759;53.396;6.722;2024-03-17T09:21:34;7.30;99.90
52895;DHT22;38759;53.396;6.722;2024-03-17T09:24:00;7.40;99.90
52895;DHT22;38759;53.396;6.722;2024-03-17T09:26:25;7.40;99.90
52895;DHT22;38759;53.396;6.722;2024-03-17T09:28:51;7.50;99.90
52895;DHT22;38759;53.396;6.722;2024-03-17T09:31:17;7.60;99.90
52895;DHT22;38759;53.396;6.722;2024-03-17T09:33:42;7.60;99.90
52895;DHT22;38759;53.396;6.722;2024-03-17T09:36:09;7.60;99.90
52895;DHT22;38759;53.396;6.722;2024-03-17T09:38:39;7.70;99.90
52895;DHT22;38759;53.396;6.722;2024-03-17T09:41:06;7.80;99.90
52895;DHT22;38759;53.396;6.722;2024-03-17T09:43:33;7.90;99.90
52895;DHT22;38759;53.396;6.722;2024-03-17T09:46:02;7.90;99.90
52895;DHT22;38759;53.396;6.722;2024-03-17T09:48:28;7.90;99.90
52895;DHT22;38759;53.396;6.722;2024-03-17T09:50:56;8.00;99.90
52895;DHT22;38759;53.396;6.722;2024-03-17T09:55:56;8.10;99.90
52895;DHT22;38759;53.396;6.722;2024-03-17T09:58:22;8.30;99.90
52895;DHT22;38759;53.396;6.722;2024-03-17T10:00:48;8.20;99.90
52895;DHT22;38759;53.396;6.722;2024-03-17T10:03:39;8.30;99.90
52895;DHT22;38759;53.396;6.722;2024-03-17T10:06:07;8.40;99.90
52895;DHT22;38759;53.396;6.722;2024-03-17T10:08:32;8.30;99.90
52895;DHT22;38759;53.396;6.722;2024-03-17T10:11:00;8.40;99.90
52895;DHT22;38759;53.396;6.722;2024-03-17T10:13:25;8.40;99.90
52895;DHT22;38759;53.396;6.722;2024-03-17T10:15:51;8.40;99.90
52895;DHT22;38759;53.396;6.722;2024-03-17T10:18:21;8.50;99.90
52895;DHT22;38759;53.396;6.722;2024-03-17T10:20:48;8.50;99.90
52895;DHT22;38759;53.396;6.722;2024-03-17T10:23:18;8.60;99.90
52895;DHT22;38759;53.396;6.722;2024-03-17T10:25:44;8.70;99.90
52895;DHT22;38759;53.396;6.722;2024-03-17T10:28:11;8.70;99.90
52895;DHT22;38759;53.396;6.722;2024-03-17T10:30:39;8.80;99.90
52895;DHT22;38759;53.396;6.722;2024-03-17T10:33:06;8.90;99.90
52895;DHT22;38759;53.396;6.722;2024-03-17T10:35:35;9.00;99.90
52895;DHT22;38759;53.396;6.722;2024-03-17T10:38:05;9.00;99.90
52895;DHT22;38759;53.396;6.722;2024-03-17T10:40:32;9.10;99.90
52895;DHT22;38759;53.396;6.722;2024-03-17T10:43:00;9.20;99.90
52895;DHT22;38759;53.396;6.722;2024-03-17T10:45:26;9.30;99.90
52895;DHT22;38759;53.396;6.722;2024-03-17T10:47:56;9.40;99.90
52895;DHT22;38759;53.396;6.722;2024-03-17T10:50:24;9.60;99.90
52895;DHT22;38759;53.396;6.722;2024-03-17T10:52:50;9.70;99.90
52895;DHT22;38759;53.396;6.722;2024-03-17T10:55:24;9.70;99.90
52895;DHT22;38759;53.396;6.722;2024-03-17T10:57:54;9.90;99.90
52895;DHT22;38759;53.396;6.722;2024-03-17T11:00:23;10.00;99.90
52895;DHT22;38759;53.396;6.722;2024-03-17T11:02:51;10.10;99.90
52895;DHT22;38759;53.396;6.722;2024-03-17T11:07:46;10.20;99.90
52895;DHT22;38759;53.396;6.722;2024-03-17T11:12:50;10.40;99.90
52895;DHT22;38759;53.396;6.722;2024-03-17T11:17:46;10.30;99.90
52895;DHT22;38759;53.396;6.722;2024-03-17T11:20:15;10.30;99.90
52895;DHT22;38759;53.396;6.722;2024-03-17T11:22:45;10.30;99.90
52895;DHT22;38759;53.396;6.722;2024-03-17T11:27:55;10.30;99.90
52895;DHT22;38759;53.396;6.722;2024-03-17T11:41:40;10.60;99.90
52895;DHT22;38759;53.396;6.722;2024-03-17T11:47:01;11.10;99.90
52895;DHT22;38759;53.396;6.722;2024-03-17T11:49:37;11.40;99.90
52895;DHT22;38759;53.396;6.722;2024-03-17T11:52:09;11.70;99.90
52895;DHT22;38759;53.396;6.722;2024-03-17T11:54:38;11.90;99.90
52895;DHT22;38759;53.396;6.722;2024-03-17T11:57:12;12.00;99.90
52895;DHT22;38759;53.396;6.722;2024-03-17T11:59:40;12.10;99.90
52895;DHT22;38759;53.396;6.722;2024-03-17T12:02:27;12.10;99.90
52895;DHT22;38759;53.396;6.722;2024-03-17T12:04:54;12.10;99.90
52895;DHT22;38759;53.396;6.722;2024-03-17T12:07:22;12.00;99.90
52895;DHT22;38759;53.396;6.722;2024-03-17T12:09:50;12.00;99.90
52895;DHT22;38759;53.396;6.722;2024-03-17T12:12:23;12.00;99.90
52895;DHT22;38759;53.396;6.722;2024-03-17T12:14:50;11.90;99.90
52895;DHT22;38759;53.396;6.722;2024-03-17T12:17:24;11.80;99.90
52895;DHT22;38759;53.396;6.722;2024-03-17T12:19:50;11.80;99.90
52895;DHT22;38759;53.396;6.722;2024-03-17T12:22:21;11.80;99.90
52895;DHT22;38759;53.396;6.722;2024-03-17T12:24:51;11.70;99.90
52895;DHT22;38759;53.396;6.722;2024-03-17T12:27:25;11.70;99.90
52895;DHT22;38759;53.396;6.722;2024-03-17T12:29:52;11.70;99.90
52895;DHT22;38759;53.396;6.722;2024-03-17T12:32:23;11.70;99.90
52895;DHT22;38759;53.396;6.722;2024-03-17T12:34:55;11.70;99.90
52895;DHT22;38759;53.396;6.722;2024-03-17T12:37:25;11.70;99.90
52895;DHT22;38759;53.396;6.722;2024-03-17T12:40:01;11.80;99.90
52895;DHT22;38759;53.396;6.722;2024-03-17T12:42:27;11.80;99.90
52895;DHT22;38759;53.396;6.722;2024-03-17T12:44:55;11.90;99.90
52895;DHT22;38759;53.396;6.722;2024-03-17T12:47:22;11.90;99.90
52895;DHT22;38759;53.396;6.722;2024-03-17T12:49:55;12.00;99.90
52895;DHT22;38759;53.396;6.722;2024-03-17T12:52:25;12.00;99.90
52895;DHT22;38759;53.396;6.722;2024-03-17T12:57:46;12.20;99.90
52895;DHT22;38759;53.396;6.722;2024-03-17T13:00:31;12.30;99.90
52895;DHT22;38759;53.396;6.722;2024-03-17T13:02:57;12.30;99.90
52895;DHT22;38759;53.396;6.722;2024-03-17T13:05:23;12.40;99.90
52895;DHT22;38759;53.396;6.722;2024-03-17T13:07:49;12.30;99.90
52895;DHT22;38759;53.396;6.722;2024-03-17T13:10:19;12.30;99.90
52895;DHT22;38759;53.396;6.722;2024-03-17T13:12:46;12.50;99.90
52895;DHT22;38759;53.396;6.722;2024-03-17T13:15:17;12.50;99.90
52895;DHT22;38759;53.396;6.722;2024-03-17T13:17:43;12.60;99.90
52895;DHT22;38759;53.396;6.722;2024-03-17T13:20:18;12.70;99.90
52895;DHT22;38759;53.396;6.722;2024-03-17T13:22:45;12.70;99.90
52895;DHT22;38759;53.396;6.722;2024-03-17T13:25:16;12.90;99.90
52895;DHT22;38759;53.396;6.722;2024-03-17T13:27:44;12.90;99.90
52895;DHT22;38759;53.396;6.722;2024-03-17T13:30:11;12.90;99.90
52895;DHT22;38759;53.396;6.722;2024-03-17T13:32:37;13.00;99.90
52895;DHT22;38759;53.396;6.722;2024-03-17T13:35:03;13.00;99.90
52895;DHT22;38759;53.396;6.722;2024-03-17T13:37:29;13.10;99.90
52895;DHT22;38759;53.396;6.722;2024-03-17T13:39:55;13.10;99.90
52895;DHT22;38759;53.396;6.722;2024-03-17T13:42:21;13.20;99.90
52895;DHT22;38759;53.396;6.722;2024-03-17T13:44:47;13.10;99.90
52895;DHT22;38759;53.396;6.722;2024-03-17T13:47:14;13.10;99.90
52895;DHT22;38759;53.396;6.722;2024-03-17T13:49:40;13.10;99.90
52895;DHT22;38759;53.396;6.722;2024-03-17T13:52:06;13.10;99.90
52895;DHT22;38759;53.396;6.722;2024-03-17T13:54:31;13.10;99.90
52895;DHT22;38759;53.396;6.722;2024-03-17T13:57:00;13.10;99.90
52895;DHT22;38759;53.396;6.722;2024-03-17T13:59:27;13.10;99.90
52895;DHT22;38759;53.396;6.722;2024-03-17T14:01:53;13.30;99.90
52895;DHT22;38759;53.396;6.722;2024-03-17T14:04:18;13.10;99.90
52895;DHT22;38759;53.396;6.722;2024-03-17T14:06:45;13.00;99.90
52895;DHT22;38759;53.396;6.722;2024-03-17T14:09:12;13.00;99.90
52895;DHT22;38759;53.396;6.722;2024-03-17T14:11:38;12.80;99.90
52895;DHT22;38759;53.396;6.722;2024-03-17T14:14:07;12.80;99.90
52895;DHT22;38759;53.396;6.722;2024-03-17T14:16:33;12.70;99.90
52895;DHT22;38759;53.396;6.722;2024-03-17T14:19:00;12.60;99.90
52895;DHT22;38759;53.396;6.722;2024-03-17T14:21:26;12.60;99.90
52895;DHT22;38759;53.396;6.722;2024-03-17T14:23:53;12.50;99.90
52895;DHT22;38759;53.396;6.722;2024-03-17T14:26:19;12.40;99.90
52895;DHT22;38759;53.396;6.722;2024-03-17T14:28:45;12.30;99.90
52895;DHT22;38759;53.396;6.722;2024-03-17T14:31:11;12.20;99.90
52895;DHT22;38759;53.396;6.722;2024-03-17T14:33:37;12.20;99.90
52895;DHT22;38759;53.396;6.722;2024-03-17T14:36:03;12.10;99.90
52895;DHT22;38759;53.396;6.722;2024-03-17T14:38:29;12.10;99.90
52895;DHT22;38759;53.396;6.722;2024-03-17T14:40:55;12.00;99.90
52895;DHT22;38759;53.396;6.722;2024-03-17T14:43:21;12.00;99.90
52895;DHT22;38759;53.396;6.722;2024-03-17T14:45:47;11.90;99.90
52895;DHT22;38759;53.396;6.722;2024-03-17T14:48:12;11.90;99.90
52895;DHT22;38759;53.396;6.722;2024-03-17T14:50:39;11.90;99.90
52895;DHT22;38759;53.396;6.722;2024-03-17T14:53:05;11.90;99.90
52895;DHT22;38759;53.396;6.722;2024-03-17T14:55:31;11.80;99.90
52895;DHT22;38759;53.396;6.722;2024-03-17T14:57:57;11.90;99.90
52895;DHT22;38759;53.396;6.722;2024-03-17T15:00:23;11.70;99.90
52895;DHT22;38759;53.396;6.722;2024-03-17T15:02:52;11.70;99.90
52895;DHT22;38759;53.396;6.722;2024-03-17T15:05:18;11.70;99.90
52895;DHT22;38759;53.396;6.722;2024-03-17T15:07:51;11.60;99.90
52895;DHT22;38759;53.396;6.722;2024-03-17T15:10:17;11.50;99.90
52895;DHT22;38759;53.396;6.722;2024-03-17T15:12:49;11.50;99.90
52895;DHT22;38759;53.396;6.722;2024-03-17T15:15:16;11.50;99.90
52895;DHT22;38759;53.396;6.722;2024-03-17T15:17:41;11.40;99.90
52895;DHT22;38759;53.396;6.722;2024-03-17T15:20:10;11.40;99.90
52895;DHT22;38759;53.396;6.722;2024-03-17T15:22:46;11.30;99.90
52895;DHT22;38759;53.396;6.722;2024-03-17T15:25:15;11.30;99.90
52895;DHT22;38759;53.396;6.722;2024-03-17T15:27:45;11.20;99.90
52895;DHT22;38759;53.396;6.722;2024-03-17T15:30:13;11.20;99.90
52895;DHT22;38759;53.396;6.722;2024-03-17T15:32:43;11.20;99.90
52895;DHT22;38759;53.396;6.722;2024-03-17T15:35:10;11.10;99.90
52895;DHT22;38759;53.396;6.722;2024-03-17T15:37:37;11.10;99.90
52895;DHT22;38759;53.396;6.722;2024-03-17T15:40:03;11.00;99.90
52895;DHT22;38759;53.396;6.722;2024-03-17T15:42:30;11.10;99.90
52895;DHT22;38759;53.396;6.722;2024-03-17T15:44:55;11.00;99.90
52895;DHT22;38759;53.396;6.722;2024-03-17T15:47:21;11.00;99.90
52895;DHT22;38759;53.396;6.722;2024-03-17T15:49:46;11.00;99.90
52895;DHT22;38759;53.396;6.722;2024-03-17T15:52:12;10.90;99.90
52895;DHT22;38759;53.396;6.722;2024-03-17T15:54:38;10.90;99.90
52895;DHT22;38759;53.396;6.722;2024-03-17T15:57:04;10.90;99.90
52895;DHT22;38759;53.396;6.722;2024-03-17T15:59:29;10.90;99.90
52895;DHT22;38759;53.396;6.722;2024-03-17T16:01:55;10.90;99.90
52895;DHT22;38759;53.396;6.722;2024-03-17T16:04:22;10.80;99.90
52895;DHT22;38759;53.396;6.722;2024-03-17T16:06:51;10.80;99.90
52895;DHT22;38759;53.396;6.722;2024-03-17T16:09:17;10.80;99.90
52895;DHT22;38759;53.396;6.722;2024-03-17T16:11:45;10.70;99.90
52895;DHT22;38759;53.396;6.722;2024-03-17T16:14:12;10.70;99.90
52895;DHT22;38759;53.396;6.722;2024-03-17T16:16:40;10.80;99.90